Time;durP1;ratioP1;P1;durP2;ratioP2;P2;SDS_P1;SDS_P2;PMS_P1;PMS_P2;Temp;Humidity;BMP_temperature;BMP_pressure;BME280_temperature;BME280_humidity;BME280_pressure;Samples;Min_cycle;Max_cycle;Signal;HPM_P1;HPM_P2
2023/08/19 00:00:33;;;;;;;0.30;0.30;;;;;;;22.61;62.20;96790.13;29395;202;63004;-69
2023/08/19 00:01:05;;;;;;;0.30;0.30;;;;;;;22.59;61.91;96792.47;29395;273;63008;-69
2023/08/19 00:01:39;;;;;;;0.30;0.30;;;;;;;22.59;62.26;96799.97;29395;243;63014;-70
2023/08/19 00:02:11;;;;;;;0.20;0.20;;;;;;;22.60;62.24;96790.50;29394;204;64014;-68
2023/08/19 00:02:43;;;;;;;0.30;0.30;;;;;;;22.60;62.61;96796.03;29395;245;63005;-69
2023/08/19 00:03:15;;;;;;;0.30;0.30;;;;;;;22.61;61.96;96789.34;29395;206;63009;-68
2023/08/19 00:03:46;;;;;;;0.30;0.30;;;;;;;22.59;62.23;96795.25;29395;229;63011;-70
2023/08/19 00:04:18;;;;;;;0.30;0.30;;;;;;;22.59;62.22;96797.22;29395;264;63009;-68
2023/08/19 00:04:49;;;;;;;0.20;0.20;;;;;;;22.57;62.52;96797.59;29395;202;63005;-69
2023/08/19 00:05:20;;;;;;;0.30;0.30;;;;;;;22.55;62.38;96794.38;29395;229;63019;-68
2023/08/19 00:05:52;;;;;;;0.30;0.30;;;;;;;22.56;62.51;96793.22;29395;227;63005;-69
2023/08/19 00:06:40;;;;;;;0.30;0.30;;;;;;;22.56;62.27;96793.22;29395;223;63009;-68
2023/08/19 00:07:11;;;;;;;0.30;0.30;;;;;;;22.56;62.51;96793.22;29394;202;64009;-68
2023/08/19 00:07:43;;;;;;;0.30;0.30;;;;;;;22.55;62.39;96791.63;29395;202;63009;-67
2023/08/19 00:08:14;;;;;;;0.30;0.30;;;;;;;22.52;62.69;96795.16;29395;239;63004;-54
2023/08/19 00:08:45;;;;;;;0.30;0.30;;;;;;;22.50;62.13;96789.22;29395;229;63016;-69
2023/08/19 00:09:16;;;;;;;0.30;0.30;;;;;;;22.49;62.31;96792.34;29395;242;63005;-69
2023/08/19 00:09:47;;;;;;;0.30;0.30;;;;;;;22.46;62.49;96791.13;29395;238;63009;-67
2023/08/19 00:10:19;;;;;;;0.30;0.30;;;;;;;22.44;62.88;96790.69;29395;205;63005;-67
2023/08/19 00:10:51;;;;;;;0.30;0.30;;;;;;;22.42;62.71;96795.78;29395;231;63014;-68
2023/08/19 00:11:24;;;;;;;0.30;0.30;;;;;;;22.40;62.50;96789.84;29394;204;64009;-68
2023/08/19 00:11:55;;;;;;;0.20;0.20;;;;;;;22.40;63.06;96792.59;29395;230;63009;-68
2023/08/19 00:12:26;;;;;;;0.30;0.30;;;;;;;22.38;62.96;96792.97;29395;210;63005;-67
2023/08/19 00:12:57;;;;;;;0.30;0.30;;;;;;;22.37;62.65;96788.62;29395;268;63009;-68
2023/08/19 00:13:30;;;;;;;0.30;0.30;;;;;;;22.37;62.93;96788.62;29395;196;63004;-67
2023/08/19 00:14:05;;;;;;;0.30;0.30;;;;;;;22.40;63.01;96792.59;29395;289;63009;-69
2023/08/19 00:14:36;;;;;;;0.30;0.30;;;;;;;22.38;63.00;96790.22;29395;274;63004;-67
2023/08/19 00:15:09;;;;;;;0.30;0.30;;;;;;;22.37;62.95;96788.62;29395;203;63009;-67
2023/08/19 00:15:43;;;;;;;0.30;0.30;;;;;;;22.33;62.74;96785.00;29395;222;63014;-67
2023/08/19 00:16:16;;;;;;;0.30;0.30;;;;;;;22.33;63.06;96784.19;29394;280;64013;-69
2023/08/19 00:16:47;;;;;;;0.20;0.20;;;;;;;22.32;63.38;96783.41;29395;233;63004;-70
2023/08/19 00:17:19;;;;;;;0.30;0.30;;;;;;;22.34;62.90;96785.78;29395;197;63017;-69
2023/08/19 00:17:50;;;;;;;0.30;0.30;;;;;;;22.33;63.13;96784.19;29395;255;63005;-69
2023/08/19 00:18:25;;;;;;;0.25;0.25;;;;;;;22.33;63.07;96786.97;29395;302;63024;-68
2023/08/19 00:18:57;;;;;;;0.30;0.30;;;;;;;22.31;63.07;96781.00;29395;281;63005;-68
2023/08/19 00:19:28;;;;;;;0.30;0.30;;;;;;;22.30;63.06;96785.72;29395;275;63009;-68
2023/08/19 00:20:00;;;;;;;0.30;0.30;;;;;;;22.29;63.40;96780.56;29395;214;63005;-68
2023/08/19 00:20:32;;;;;;;0.20;0.20;;;;;;;22.27;63.02;96785.69;29395;241;63009;-68
2023/08/19 00:21:04;;;;;;;0.30;0.30;;;;;;;22.29;63.59;96780.56;29395;234;63004;-70
2023/08/19 00:21:35;;;;;;;0.30;0.30;;;;;;;22.27;63.14;96778.19;29394;270;64013;-67
2023/08/19 00:22:06;;;;;;;0.30;0.30;;;;;;;22.28;63.15;96787.28;29395;204;63004;-69
2023/08/19 00:22:41;;;;;;;0.30;0.30;;;;;;;22.28;63.46;96784.50;29395;204;63009;-68
2023/08/19 00:23:15;;;;;;;0.30;0.30;;;;;;;22.27;63.04;96785.69;29395;231;63004;-69
2023/08/19 00:23:46;;;;;;;0.70;0.70;;;;;;;22.25;63.14;96788.00;29395;212;63008;-70
2023/08/19 00:24:17;;;;;;;0.30;0.30;;;;;;;22.22;63.21;96780.47;29395;236;63009;-69
2023/08/19 00:24:48;;;;;;;0.30;0.30;;;;;;;22.20;63.23;96780.03;29394;210;64014;-68
2023/08/19 00:25:19;;;;;;;0.30;0.30;;;;;;;22.20;63.61;96785.56;29395;242;63005;-69
2023/08/19 00:25:51;;;;;;;0.30;0.30;;;;;;;22.20;63.81;96780.03;29395;233;63015;-54
2023/08/19 00:26:25;;;;;;;0.30;0.30;;;;;;;22.21;63.75;96781.62;29394;224;64009;-68
2023/08/19 00:26:59;;;;;;;0.30;0.30;;;;;;;22.21;64.01;96781.62;29395;204;63009;-66
2023/08/19 00:27:32;;;;;;;0.30;0.30;;;;;;;22.21;63.71;96776.91;29395;223;63005;-69
2023/08/19 00:28:07;;;;;;;0.30;0.30;;;;;;;22.21;63.44;96778.88;29395;243;63009;-70
2023/08/19 00:28:39;;;;;;;0.30;0.30;;;;;;;22.21;63.74;96782.44;29395;235;63007;-69
2023/08/19 00:29:10;;;;;;;0.30;0.30;;;;;;;22.22;63.70;96777.69;29395;223;63026;-69
2023/08/19 00:29:41;;;;;;;0.40;0.40;;;;;;;22.21;64.02;96781.62;29395;224;63004;-68
2023/08/19 00:30:13;;;;;;;0.30;0.30;;;;;;;22.21;63.52;96776.09;29395;229;63009;-68
2023/08/19 00:30:44;;;;;;;0.30;0.30;;;;;;;22.18;63.66;96777.63;29395;273;63004;-68
2023/08/19 00:31:15;;;;;;;0.30;0.30;;;;;;;22.16;63.78;96779.19;29395;234;63008;-68
2023/08/19 00:31:47;;;;;;;0.30;0.30;;;;;;;22.16;64.04;96781.97;29394;277;64008;-69
2023/08/19 00:32:19;;;;;;;0.30;0.30;;;;;;;22.14;63.80;96785.09;29395;207;63009;-67
2023/08/19 00:32:51;;;;;;;0.30;0.30;;;;;;;22.13;64.06;96777.97;29395;232;63005;-53
2023/08/19 00:33:25;;;;;;;0.30;0.30;;;;;;;22.14;64.10;96784.31;29395;225;63021;-68
2023/08/19 00:33:56;;;;;;;0.30;0.30;;;;;;;22.13;64.23;96780.75;29395;241;63005;-67
2023/08/19 00:34:27;;;;;;;0.30;0.30;;;;;;;22.14;64.16;96781.53;29395;232;63009;-68
2023/08/19 00:34:58;;;;;;;0.30;0.30;;;;;;;22.13;64.25;96779.94;29395;231;63005;-68
2023/08/19 00:35:33;;;;;;;0.40;0.40;;;;;;;22.13;64.42;96779.94;29395;239;63009;-67
2023/08/19 00:36:08;;;;;;;0.30;0.30;;;;;;;22.12;64.43;96779.16;29395;205;63005;-69
2023/08/19 00:36:39;;;;;;;0.30;0.30;;;;;;;22.14;64.24;96778.78;29395;230;63020;-68
2023/08/19 00:37:11;;;;;;;0.30;0.30;;;;;;;22.13;64.15;96777.19;29394;234;64009;-68
2023/08/19 00:37:42;;;;;;;0.30;0.30;;;;;;;22.14;64.49;96779.56;29395;202;63019;-66
2023/08/19 00:38:13;;;;;;;0.30;0.30;;;;;;;22.15;64.54;96778.41;29395;244;63004;-67
2023/08/19 00:38:45;;;;;;;0.30;0.30;;;;;;;22.15;64.53;96777.59;29394;226;64013;-53
2023/08/19 00:39:17;;;;;;;0.30;0.30;;;;;;;22.15;64.25;96772.09;29395;196;63004;-67
2023/08/19 00:39:49;;;;;;;0.30;0.30;;;;;;;22.13;64.07;96777.97;29395;231;63014;-68
2023/08/19 00:40:21;;;;;;;0.30;0.30;;;;;;;22.13;64.44;96768.87;29395;214;63005;-68
2023/08/19 00:40:52;;;;;;;0.30;0.30;;;;;;;22.14;64.42;96779.56;29395;247;63009;-68
2023/08/19 00:41:23;;;;;;;0.30;0.30;;;;;;;22.14;64.85;96782.34;29395;199;63005;-70
2023/08/19 00:41:55;;;;;;;0.30;0.30;;;;;;;22.13;64.21;96779.94;29395;237;63009;-53
2023/08/19 00:42:26;;;;;;;0.30;0.30;;;;;;;22.14;64.43;96781.53;29395;264;63010;-69
2023/08/19 00:42:59;;;;;;;0.30;0.30;;;;;;;22.16;64.05;96782.75;29395;216;63009;-68
2023/08/19 00:43:31;;;;;;;0.30;0.30;;;;;;;22.18;64.27;96779.63;29395;230;63010;-69
2023/08/19 00:44:03;;;;;;;0.30;0.30;;;;;;;22.14;64.16;96776.00;29394;219;64013;-68
2023/08/19 00:44:34;;;;;;;0.30;0.30;;;;;;;22.14;64.73;96776.81;29395;302;63004;-69
2023/08/19 00:45:10;;;;;;;0.30;0.30;;;;;;;22.14;64.25;96781.53;29395;218;63009;-68
2023/08/19 00:45:46;;;;;;;0.30;0.30;;;;;;;22.13;64.53;96779.94;29395;243;63008;-67
2023/08/19 00:46:17;;;;;;;0.30;0.30;;;;;;;22.13;64.07;96779.94;29395;196;63008;-69
2023/08/19 00:46:49;;;;;;;0.30;0.30;;;;;;;22.12;64.42;96779.16;29395;233;63004;-68
2023/08/19 00:47:21;;;;;;;0.30;0.30;;;;;;;22.15;64.09;96777.59;29395;209;63009;-68
2023/08/19 00:47:53;;;;;;;0.32;0.32;;;;;;;22.15;64.34;96772.09;29395;225;63005;-55
2023/08/19 00:48:25;;;;;;;0.30;0.30;;;;;;;22.13;64.50;96777.19;29395;198;63009;-68
2023/08/19 00:48:59;;;;;;;0.30;0.30;;;;;;;22.12;64.29;96772.81;29395;245;63010;-68
2023/08/19 00:49:32;;;;;;;0.30;0.30;;;;;;;22.11;64.51;96774.78;29394;196;64013;-69
2023/08/19 00:50:07;;;;;;;0.30;0.30;;;;;;;22.09;64.43;96781.84;29395;251;63005;-69
2023/08/19 00:50:39;;;;;;;0.30;0.30;;;;;;;22.06;64.57;96775.91;29395;245;63009;-67
2023/08/19 00:51:13;;;;;;;0.30;0.30;;;;;;;22.08;64.54;96789.34;29395;236;63004;-69
2023/08/19 00:51:44;;;;;;;0.30;0.30;;;;;;;22.06;64.07;96770.37;29395;249;63009;-67
2023/08/19 00:52:16;;;;;;;0.30;0.30;;;;;;;22.06;64.50;96777.84;29395;205;63004;-54
2023/08/19 00:52:47;;;;;;;0.30;0.30;;;;;;;22.04;64.34;96782.94;29395;271;63009;-69
2023/08/19 00:53:19;;;;;;;0.40;0.40;;;;;;;22.03;64.75;96779.41;29395;209;63004;-68
2023/08/19 00:53:52;;;;;;;0.40;0.40;;;;;;;22.04;64.72;96783.75;29395;212;63009;-67
2023/08/19 00:54:24;;;;;;;0.30;0.30;;;;;;;22.02;64.41;96780.56;29395;198;63001;-67
2023/08/19 00:54:55;;;;;;;0.30;0.30;;;;;;;22.01;64.33;96790.00;29394;236;64014;-68
2023/08/19 00:55:27;;;;;;;0.30;0.30;;;;;;;21.99;64.49;96783.22;29395;216;63005;-69
2023/08/19 00:55:59;;;;;;;0.30;0.30;;;;;;;21.98;64.74;96784.41;29395;287;63009;-67
2023/08/19 00:56:30;;;;;;;0.30;0.30;;;;;;;21.96;65.17;96787.53;29395;216;63005;-68
2023/08/19 00:57:01;;;;;;;0.37;0.37;;;;;;;21.96;64.54;96784.75;29395;245;63009;-53
2023/08/19 00:57:35;;;;;;;0.30;0.30;;;;;;;21.96;64.87;96787.53;29395;228;63005;-68
2023/08/19 00:58:07;;;;;;;0.32;0.32;;;;;;;21.95;64.70;96780.41;29395;213;63009;-69
2023/08/19 00:58:39;;;;;;;0.30;0.30;;;;;;;21.94;65.03;96795.38;29395;215;63004;-68
2023/08/19 00:59:11;;;;;;;0.30;0.30;;;;;;;21.93;65.03;96784.69;29395;243;63009;-69
2023/08/19 00:59:43;;;;;;;0.30;0.30;;;;;;;21.93;64.62;96795.75;29395;204;63004;-68
2023/08/19 01:00:15;;;;;;;0.62;0.62;;;;;;;21.92;64.83;96796.91;29394;203;64013;-52
2023/08/19 01:00:48;;;;;;;0.30;0.30;;;;;;;21.91;65.19;96790.59;29395;221;63015;-69
2023/08/19 01:01:19;;;;;;;0.30;0.30;;;;;;;21.92;64.89;96792.19;29395;223;63009;-69
2023/08/19 01:01:51;;;;;;;0.30;0.30;;;;;;;21.93;65.06;96790.22;29395;213;63005;-69
2023/08/19 01:02:23;;;;;;;0.30;0.30;;;;;;;21.93;64.91;96788.25;29395;263;63009;-68
2023/08/19 01:02:54;;;;;;;0.30;0.30;;;;;;;21.94;64.96;96789.84;29395;211;63005;-68
2023/08/19 01:03:29;;;;;;;0.30;0.30;;;;;;;21.94;64.95;96789.06;29395;234;63009;-68
2023/08/19 01:04:00;;;;;;;0.37;0.37;;;;;;;21.94;65.08;96795.38;29395;217;63005;-68
2023/08/19 01:04:32;;;;;;;0.30;0.30;;;;;;;21.93;64.93;96788.25;29395;267;63005;-68
2023/08/19 01:05:04;;;;;;;0.30;0.30;;;;;;;21.93;64.90;96793.78;29395;310;63000;-69
2023/08/19 01:06:06;;;;;;;0.30;0.30;;;;;;;21.93;64.92;96788.25;29394;280;64013;-67
2023/08/19 01:06:51;;;;;;;0.30;0.30;;;;;;;21.94;64.89;96789.84;29417;227;63009;-68
2023/08/19 01:07:53;;;;;;;0.30;0.30;;;;;;;21.93;64.86;96788.25;29395;225;63004;-68
2023/08/19 01:08:38;;;;;;;0.40;0.40;;;;;;;21.93;64.83;96782.75;29395;237;63004;-68
2023/08/19 01:09:43;;;;;;;0.30;0.30;;;;;;;21.92;64.70;96783.91;29395;203;63009;-54
2023/08/19 01:10:41;;;;;;;0.30;0.30;;;;;;;21.90;65.12;96783.47;29395;210;63010;-68
2023/08/19 01:11:45;;;;;;;0.30;0.30;;;;;;;21.89;64.72;96784.63;29394;226;64013;-69
2023/08/19 01:12:42;;;;;;;0.30;0.30;;;;;;;21.87;65.14;96786.97;29395;268;63005;-69
2023/08/19 01:13:15;;;;;;;0.30;0.30;;;;;;;21.87;64.87;96778.69;29395;242;63009;-67
2023/08/19 01:14:17;;;;;;;0.30;0.30;;;;;;;21.87;65.38;96783.41;29395;230;63004;-68
2023/08/19 01:15:07;;;;;;;0.30;0.30;;;;;;;21.84;64.99;96775.84;29417;200;63015;-69
2023/08/19 01:15:52;;;;;;;0.30;0.30;;;;;;;21.84;65.37;96776.66;29417;273;63004;-66
2023/08/19 01:16:27;;;;;;;0.30;0.30;;;;;;;21.83;65.43;96772.28;29394;238;64014;-67
2023/08/19 01:17:05;;;;;;;0.30;0.30;;;;;;;21.83;65.50;96769.53;29395;227;63005;-69
2023/08/19 01:17:39;;;;;;;0.30;0.30;;;;;;;21.83;64.95;96772.28;29395;223;63009;-68
2023/08/19 01:18:14;;;;;;;0.30;0.30;;;;;;;21.83;65.45;96777.81;29395;225;63010;-67
2023/08/19 01:18:46;;;;;;;0.30;0.30;;;;;;;21.83;65.22;96777.06;29395;202;63009;-69
2023/08/19 01:19:26;;;;;;;0.40;0.40;;;;;;;21.81;65.16;96769.13;29395;206;63018;-68
2023/08/19 01:19:58;;;;;;;0.30;0.30;;;;;;;21.80;65.33;96778.59;29417;213;63009;-68
2023/08/19 01:20:32;;;;;;;0.30;0.30;;;;;;;21.79;65.46;96771.47;29395;198;63005;-68
2023/08/19 01:21:05;;;;;;;0.30;0.30;;;;;;;21.79;65.46;96777.00;29395;199;63009;-53
2023/08/19 01:21:37;;;;;;;0.30;0.30;;;;;;;21.80;65.23;96784.09;29394;245;64009;-68
2023/08/19 01:22:16;;;;;;;0.30;0.30;;;;;;;21.80;65.02;96770.31;29395;207;63009;-70
2023/08/19 01:23:02;;;;;;;0.30;0.30;;;;;;;21.80;65.19;96773.06;29395;257;63004;-69
2023/08/19 01:23:39;;;;;;;0.30;0.30;;;;;;;21.80;65.23;96773.06;29395;210;63008;-68
2023/08/19 01:24:13;;;;;;;0.30;0.30;;;;;;;21.80;65.03;96773.06;29395;223;63005;-54
2023/08/19 01:24:47;;;;;;;0.30;0.30;;;;;;;21.79;65.24;96765.94;29395;247;63009;-70
2023/08/19 01:25:21;;;;;;;0.30;0.30;;;;;;;21.78;65.26;96769.87;29395;205;63005;-67
2023/08/19 01:25:52;;;;;;;0.30;0.30;;;;;;;21.79;65.38;96771.47;29395;235;63009;-67
2023/08/19 01:26:24;;;;;;;0.30;0.30;;;;;;;21.78;65.18;96769.06;29395;238;63005;-67
2023/08/19 01:26:55;;;;;;;0.30;0.30;;;;;;;21.78;65.55;96769.87;29394;218;64013;-68
2023/08/19 01:27:27;;;;;;;0.30;0.30;;;;;;;21.77;65.56;96775.75;29395;280;63005;-54
2023/08/19 01:28:05;;;;;;;0.30;0.30;;;;;;;21.78;65.33;96775.41;29395;214;63009;-52
2023/08/19 01:28:36;;;;;;;0.30;0.30;;;;;;;21.77;65.61;96771.03;29395;206;63004;-67
2023/08/19 01:29:07;;;;;;;1.10;1.10;;;;;;;21.79;65.80;96765.94;29395;222;63009;-68
2023/08/19 01:29:38;;;;;;;0.30;0.30;;;;;;;21.79;65.52;96768.69;29395;222;63004;-67
2023/08/19 01:30:11;;;;;;;0.22;0.22;;;;;;;21.80;65.33;96767.53;29395;202;63014;-68
2023/08/19 01:30:43;;;;;;;0.30;0.30;;;;;;;21.80;65.32;96772.25;29394;244;64004;-68
2023/08/19 01:31:15;;;;;;;0.30;0.30;;;;;;;21.79;65.40;96774.22;29395;208;63008;-68
2023/08/19 01:31:46;;;;;;;0.30;0.30;;;;;;;21.79;65.64;96767.91;29395;209;63005;-68
2023/08/19 01:32:20;;;;;;;0.30;0.30;;;;;;;21.77;65.83;96768.28;29394;235;64014;-68
2023/08/19 01:32:51;;;;;;;0.30;0.30;;;;;;;21.77;65.54;96767.47;29394;273;64005;-69
2023/08/19 01:33:23;;;;;;;0.30;0.30;;;;;;;21.77;65.43;96768.28;29395;205;63009;-69
2023/08/19 01:33:54;;;;;;;0.30;0.30;;;;;;;21.77;65.64;96768.28;29395;203;63018;-69
2023/08/19 01:34:26;;;;;;;0.30;0.30;;;;;;;21.76;65.39;96761.16;29395;202;63009;-70
2023/08/19 01:34:58;;;;;;;0.30;0.30;;;;;;;21.77;65.90;96770.25;29395;238;63005;-68
2023/08/19 01:35:35;;;;;;;0.30;0.30;;;;;;;21.78;65.73;96761.59;29395;240;63009;-53
2023/08/19 01:36:20;;;;;;;0.30;0.30;;;;;;;21.79;65.69;96760.41;29395;212;63015;-68
2023/08/19 01:36:59;;;;;;;0.30;0.30;;;;;;;21.80;65.55;96755.69;29395;261;63009;-68
2023/08/19 01:37:57;;;;;;;0.30;0.30;;;;;;;21.79;65.81;96760.41;29394;226;64009;-68
2023/08/19 01:38:43;;;;;;;0.30;0.30;;;;;;;21.80;65.38;96764.78;29395;246;63019;-70
2023/08/19 01:39:16;;;;;;;0.30;0.30;;;;;;;21.80;65.69;96767.53;29395;268;63005;-68
2023/08/19 01:39:49;;;;;;;0.30;0.30;;;;;;;21.78;65.71;96764.34;29395;208;63009;-67
2023/08/19 01:40:22;;;;;;;0.30;0.30;;;;;;;21.77;65.55;96768.28;29395;197;63005;-67
2023/08/19 01:40:54;;;;;;;0.30;0.30;;;;;;;21.76;65.55;96761.16;29395;199;63009;-67
2023/08/19 01:41:28;;;;;;;0.30;0.30;;;;;;;21.77;65.96;96768.28;29395;238;63005;-68
2023/08/19 01:41:59;;;;;;;0.30;0.30;;;;;;;21.75;65.71;96762.31;29395;308;63019;-70
2023/08/19 01:42:32;;;;;;;0.30;0.30;;;;;;;21.74;65.78;96763.47;29394;202;64009;-68
2023/08/19 01:43:08;;;;;;;0.30;0.30;;;;;;;21.72;65.56;96774.09;29395;255;63009;-67
2023/08/19 01:43:40;;;;;;;0.30;0.30;;;;;;;21.71;65.80;96770.53;29395;204;63004;-69
2023/08/19 01:44:13;;;;;;;0.30;0.30;;;;;;;21.70;66.18;96768.16;29394;227;64013;-69
2023/08/19 01:44:45;;;;;;;0.30;0.30;;;;;;;21.68;65.77;96770.47;29395;202;63004;-67
2023/08/19 01:45:18;;;;;;;0.30;0.30;;;;;;;21.68;65.81;96776.00;29395;210;63009;-67
2023/08/19 01:45:50;;;;;;;0.30;0.30;;;;;;;21.67;66.14;96768.87;29395;197;63004;-66
2023/08/19 01:46:21;;;;;;;0.30;0.30;;;;;;;21.67;66.39;96768.87;29395;240;63008;-69
2023/08/19 01:46:53;;;;;;;0.30;0.30;;;;;;;;;;29395;203;63005;-68
2023/08/19 01:47:24;;;;;;;0.30;0.30;;;;;;;21.66;66.35;96772.81;29394;237;64005;-68
2023/08/19 01:47:56;;;;;;;0.30;0.30;;;;;;;;;;29395;233;63015;-67
2023/08/19 01:48:27;;;;;;;0.30;0.30;;;;;;;21.65;66.38;96768.44;29394;239;64013;-53
2023/08/19 01:48:58;;;;;;;0.30;0.30;;;;;;;21.65;66.25;96776.72;29395;245;63005;-67
2023/08/19 01:49:29;;;;;;;0.30;0.30;;;;;;;21.65;66.21;96771.19;29395;200;63009;-68
2023/08/19 01:50:01;;;;;;;0.40;0.40;;;;;;;21.66;66.36;96772.81;29395;213;63004;-54
2023/08/19 01:50:33;;;;;;;0.30;0.30;;;;;;;21.67;66.31;96766.12;29395;238;63009;-68
2023/08/19 01:51:07;;;;;;;0.30;0.30;;;;;;;21.70;65.96;96771.69;29395;197;63004;-68
2023/08/19 01:51:39;;;;;;;0.30;0.30;;;;;;;21.71;66.06;96769.75;29395;222;63009;-68
2023/08/19 01:52:12;;;;;;;0.30;0.30;;;;;;;21.71;65.78;96769.75;29395;197;63004;-67
2023/08/19 01:52:43;;;;;;;0.30;0.30;;;;;;;21.70;65.95;96774.47;29395;241;63020;-65
2023/08/19 01:53:15;;;;;;;0.30;0.30;;;;;;;21.70;65.91;96768.94;29395;228;63004;-68
2023/08/19 01:53:46;;;;;;;0.30;0.30;;;;;;;21.69;65.85;96767.34;29394;241;64013;-67
2023/08/19 01:54:17;;;;;;;0.30;0.30;;;;;;;21.71;65.94;96775.25;29395;242;63005;-68
2023/08/19 01:54:48;;;;;;;0.30;0.30;;;;;;;21.71;66.21;96772.50;29395;241;63009;-67
2023/08/19 01:55:20;;;;;;;0.30;0.30;;;;;;;21.72;66.04;96765.81;29395;197;63005;-67
2023/08/19 01:55:52;;;;;;;0.30;0.30;;;;;;;21.72;65.80;96780.41;29395;213;63009;-68
2023/08/19 01:56:23;;;;;;;0.30;0.30;;;;;;;21.74;66.09;96778.09;29395;303;63005;-68
2023/08/19 01:56:55;;;;;;;0.45;0.45;;;;;;;21.77;65.84;96773.00;29394;222;64013;-67
2023/08/19 01:57:27;;;;;;;0.30;0.30;;;;;;;21.79;65.96;96770.66;29395;218;63005;-67
2023/08/19 01:58:00;;;;;;;0.30;0.30;;;;;;;21.78;65.81;96774.59;29395;210;63009;-66
2023/08/19 01:58:32;;;;;;;0.30;0.30;;;;;;;21.77;65.98;96773.78;29395;230;63004;-66
2023/08/19 01:59:03;;;;;;;0.30;0.30;;;;;;;21.77;65.56;96773.78;29395;214;63009;-67
2023/08/19 01:59:35;;;;;;;0.30;0.30;;;;;;;21.77;65.77;96779.31;29395;219;63004;-68
2023/08/19 02:00:07;;;;;;;0.30;0.30;;;;;;;21.77;65.82;96773.00;29395;243;63008;-67
2023/08/19 02:00:39;;;;;;;0.30;0.30;;;;;;;21.75;65.93;96770.59;29395;274;63004;-67
2023/08/19 02:01:11;;;;;;;0.30;0.30;;;;;;;21.76;65.93;96774.16;29395;321;63009;-67
2023/08/19 02:01:42;;;;;;;0.30;0.30;;;;;;;21.75;65.99;96776.13;29396;202;63011;-67
2023/08/19 02:02:13;;;;;;;0.30;0.30;;;;;;;21.76;65.93;96772.19;29395;199;64014;-68
2023/08/19 02:02:45;;;;;;;0.30;0.30;;;;;;;21.75;65.75;96770.59;29396;221;63005;-68
2023/08/19 02:03:16;;;;;;;0.30;0.30;;;;;;;21.75;65.84;96776.13;29396;300;63009;-67
2023/08/19 02:03:47;;;;;;;0.30;0.30;;;;;;;21.74;66.09;96774.53;29396;258;63005;-67
2023/08/19 02:04:19;;;;;;;0.30;0.30;;;;;;;21.73;65.99;96779.25;29396;224;63005;-67
2023/08/19 02:04:52;;;;;;;0.30;0.30;;;;;;;21.72;66.28;96774.09;29396;239;63010;-67
2023/08/19 02:05:24;;;;;;;0.30;0.30;;;;;;;21.72;65.78;96765.81;29396;228;63009;-68
2023/08/19 02:05:56;;;;;;;0.30;0.30;;;;;;;21.70;66.44;96776.44;29395;296;64015;-66
2023/08/19 02:06:29;;;;;;;0.30;0.30;;;;;;;21.69;66.11;96772.06;29395;233;63009;-67
2023/08/19 02:07:00;;;;;;;0.30;0.30;;;;;;;21.67;66.43;96777.16;29396;222;63000;-67
2023/08/19 02:07:32;;;;;;;0.40;0.40;;;;;;;21.67;66.59;96769.69;29395;213;64013;-66
2023/08/19 02:08:04;;;;;;;0.30;0.30;;;;;;;21.67;66.65;96774.41;29396;218;63004;-67
2023/08/19 02:08:35;;;;;;;0.30;0.30;;;;;;;;;;29396;260;63021;-67
2023/08/19 02:09:06;;;;;;;0.30;0.30;;;;;;;21.61;66.26;96770.34;29396;200;63009;-67
2023/08/19 02:09:45;;;;;;;0.30;0.30;;;;;;;21.61;66.31;96775.88;29396;241;63005;-67
2023/08/19 02:10:17;;;;;;;0.30;0.30;;;;;;;21.59;66.44;96779.00;29396;283;63009;-67
2023/08/19 02:10:50;;;;;;;0.30;0.30;;;;;;;21.59;66.57;96775.44;29396;281;63005;-67
2023/08/19 02:11:26;;;;;;;0.30;0.30;;;;;;;21.60;66.72;96779.78;29396;234;63009;-67
2023/08/19 02:11:57;;;;;;;0.30;0.30;;;;;;;21.60;66.56;96779.78;29396;202;63005;-69
2023/08/19 02:12:29;;;;;;;0.30;0.30;;;;;;;21.60;66.75;96774.25;29396;207;63009;-69
2023/08/19 02:13:00;;;;;;;0.30;0.30;;;;;;;21.59;66.76;96780.94;29395;215;64009;-67
2023/08/19 02:13:31;;;;;;;0.30;0.30;;;;;;;21.57;66.66;96775.78;29396;197;63009;-66
2023/08/19 02:14:03;;;;;;;0.30;0.30;;;;;;;21.57;66.67;96777.75;29396;203;63004;-67
2023/08/19 02:14:35;;;;;;;0.30;0.30;;;;;;;21.56;67.18;96773.41;29396;241;63009;-66
2023/08/19 02:15:07;;;;;;;0.30;0.30;;;;;;;21.56;66.86;96778.91;29396;202;63010;-67
2023/08/19 02:15:41;;;;;;;0.30;0.30;;;;;;;21.56;66.87;96774.19;29396;211;63008;-55
2023/08/19 02:16:16;;;;;;;0.30;0.30;;;;;;;21.57;66.77;96777.75;29396;295;63010;-53
2023/08/19 02:16:47;;;;;;;0.30;0.30;;;;;;;21.56;67.00;96778.91;29396;217;63009;-68
2023/08/19 02:17:18;;;;;;;0.30;0.30;;;;;;;21.57;66.65;96775.00;29396;203;63005;-67
2023/08/19 02:17:49;;;;;;;0.30;0.30;;;;;;;21.57;66.80;96780.50;29396;218;63009;-68
2023/08/19 02:18:22;;;;;;;0.30;0.30;;;;;;;21.58;66.69;96782.91;29395;206;64009;-69
2023/08/19 02:18:53;;;;;;;0.30;0.30;;;;;;;21.59;66.78;96780.94;29396;197;63009;-66
2023/08/19 02:19:25;;;;;;;0.30;0.30;;;;;;;21.60;66.43;96782.56;29396;207;63005;-69
2023/08/19 02:19:59;;;;;;;0.30;0.30;;;;;;;21.60;66.75;96779.78;29396;232;63009;-68
2023/08/19 02:20:30;;;;;;;0.30;0.30;;;;;;;21.59;66.21;96779.00;29396;203;63004;-67
2023/08/19 02:21:02;;;;;;;0.30;0.30;;;;;;;21.59;66.82;96778.19;29396;315;63017;-69
2023/08/19 02:21:40;;;;;;;0.30;0.30;;;;;;;21.58;66.37;96782.91;29396;251;63004;-67
2023/08/19 02:22:11;;;;;;;0.30;0.30;;;;;;;21.58;66.66;96787.63;29396;247;63009;-67
2023/08/19 02:22:43;;;;;;;0.30;0.30;;;;;;;21.57;66.17;96783.28;29396;257;63004;-69
2023/08/19 02:23:15;;;;;;;0.30;0.30;;;;;;;21.58;66.69;96782.13;29396;234;63008;-54
2023/08/19 02:23:46;;;;;;;0.30;0.30;;;;;;;21.58;66.82;96782.13;29395;262;64009;-67
2023/08/19 02:24:18;;;;;;;0.30;0.30;;;;;;;21.58;66.84;96779.34;29396;211;63009;-67
2023/08/19 02:24:49;;;;;;;0.30;0.30;;;;;;;21.58;66.64;96782.13;29396;213;63005;-67
2023/08/19 02:25:20;;;;;;;0.30;0.30;;;;;;;21.57;66.67;96780.50;29396;203;63009;-68
2023/08/19 02:25:53;;;;;;;0.30;0.30;;;;;;;21.57;66.67;96778.56;29396;214;63005;-53
2023/08/19 02:26:26;;;;;;;0.30;0.30;;;;;;;21.61;66.52;96782.19;29396;220;63009;-67
2023/08/19 02:26:57;;;;;;;0.30;0.30;;;;;;;21.62;66.51;96777.47;29396;238;63005;-66
2023/08/19 02:27:31;;;;;;;0.30;0.30;;;;;;;21.61;66.58;96782.19;29396;206;63009;-67
2023/08/19 02:28:03;;;;;;;0.30;0.30;;;;;;;21.61;66.35;96787.72;29396;237;63004;-68
2023/08/19 02:28:35;;;;;;;0.30;0.30;;;;;;;21.61;66.64;96775.88;29396;242;63017;-68
2023/08/19 02:29:07;;;;;;;0.30;0.30;;;;;;;21.61;66.51;96779.41;29395;197;64009;-69
2023/08/19 02:29:38;;;;;;;0.30;0.30;;;;;;;21.62;66.42;96781.03;29396;210;63019;-69
2023/08/19 02:30:10;;;;;;;0.30;0.30;;;;;;;21.61;66.66;96786.91;29396;204;63010;-70
2023/08/19 02:30:42;;;;;;;0.40;0.40;;;;;;;21.62;66.54;96777.47;29396;251;63008;-68
2023/08/19 02:31:13;;;;;;;0.30;0.30;;;;;;;21.61;66.26;96770.34;29395;235;64005;-69
2023/08/19 02:31:47;;;;;;;0.30;0.30;;;;;;;21.61;66.81;96781.38;29396;220;63009;-53
2023/08/19 02:32:18;;;;;;;0.30;0.30;;;;;;;21.61;66.31;96776.66;29396;220;63005;-68
2023/08/19 02:32:49;;;;;;;0.30;0.30;;;;;;;21.62;66.25;96777.47;29396;304;63009;-66
2023/08/19 02:33:21;;;;;;;0.30;0.30;;;;;;;21.61;66.40;96776.66;29396;218;63005;-68
2023/08/19 02:33:53;;;;;;;0.30;0.30;;;;;;;21.61;66.79;96781.38;29396;211;63009;-67
2023/08/19 02:34:24;;;;;;;0.30;0.30;;;;;;;21.61;66.78;96781.38;29395;208;64009;-68
2023/08/19 02:34:55;;;;;;;0.30;0.30;;;;;;;21.61;66.42;96779.41;29396;204;63009;-67
2023/08/19 02:35:26;;;;;;;0.30;0.30;;;;;;;21.58;66.66;96774.63;29396;217;63004;-68
2023/08/19 02:35:57;;;;;;;0.30;0.30;;;;;;;21.56;66.86;96784.44;29396;227;63015;-67
2023/08/19 02:36:30;;;;;;;0.30;0.30;;;;;;;21.54;66.73;96781.25;29396;218;63004;-67
2023/08/19 02:37:02;;;;;;;0.30;0.30;;;;;;;21.54;67.04;96781.25;29396;199;63009;-68
2023/08/19 02:37:34;;;;;;;0.30;0.30;;;;;;;21.53;66.73;96779.66;29396;254;63004;-67
2023/08/19 02:38:05;;;;;;;0.30;0.30;;;;;;;21.54;66.85;96779.28;29396;215;63008;-67
2023/08/19 02:38:36;;;;;;;0.30;0.30;;;;;;;21.54;66.88;96781.25;29396;202;63005;-69
2023/08/19 02:39:07;;;;;;;0.30;0.30;;;;;;;21.53;66.88;96785.19;29396;248;63009;-68
2023/08/19 02:39:39;;;;;;;0.30;0.30;;;;;;;21.53;66.70;96779.66;29395;220;64009;-67
2023/08/19 02:40:10;;;;;;;0.30;0.30;;;;;;;21.52;66.69;96770.56;29396;203;63009;-68